sensor_id;sensor_type;location;lat;lon;timestamp;P1;durP1;ratioP1;P2;durP2;ratioP2
10134;SDS011;5107;48.850;8.924;2022-07-22T00:01:17;6.43;;;5.82;;
10134;SDS011;5107;48.850;8.924;2022-07-22T00:03:44;6.15;;;5.55;;
10134;SDS011;5107;48.850;8.924;2022-07-22T00:06:12;6.43;;;5.82;;
10134;SDS011;5107;48.850;8.924;2022-07-22T00:08:39;10.47;;;5.90;;
10134;SDS011;5107;48.850;8.924;2022-07-22T00:11:07;6.10;;;5.60;;
10134;SDS011;5107;48.850;8.924;2022-07-22T00:13:35;5.83;;;5.33;;
10134;SDS011;5107;48.850;8.924;2022-07-22T00:16:02;6.20;;;5.60;;
10134;SDS011;5107;48.850;8.924;2022-07-22T00:18:30;6.97;;;6.28;;
10134;SDS011;5107;48.850;8.924;2022-07-22T00:20:57;6.20;;;5.60;;
10134;SDS011;5107;48.850;8.924;2022-07-22T00:23:24;6.63;;;6.03;;
10134;SDS011;5107;48.850;8.924;2022-07-22T00:25:52;7.65;;;5.93;;
10134;SDS011;5107;48.850;8.924;2022-07-22T00:28:20;7.00;;;6.30;;
10134;SDS011;5107;48.850;8.924;2022-07-22T00:30:48;7.40;;;6.63;;
10134;SDS011;5107;48.850;8.924;2022-07-22T00:33:15;6.93;;;6.32;;
10134;SDS011;5107;48.850;8.924;2022-07-22T00:35:42;6.93;;;6.05;;
10134;SDS011;5107;48.850;8.924;2022-07-22T00:38:10;6.83;;;6.17;;
10134;SDS011;5107;48.850;8.924;2022-07-22T00:40:37;6.80;;;6.20;;
10134;SDS011;5107;48.850;8.924;2022-07-22T00:43:04;7.90;;;6.05;;
10134;SDS011;5107;48.850;8.924;2022-07-22T00:45:32;7.85;;;6.20;;
10134;SDS011;5107;48.850;8.924;2022-07-22T00:48:00;6.75;;;6.00;;
10134;SDS011;5107;48.850;8.924;2022-07-22T00:50:27;6.80;;;6.10;;
10134;SDS011;5107;48.850;8.924;2022-07-22T00:52:55;6.90;;;6.30;;
10134;SDS011;5107;48.850;8.924;2022-07-22T00:55:23;7.83;;;7.03;;
10134;SDS011;5107;48.850;8.924;2022-07-22T00:57:50;8.70;;;6.90;;
10134;SDS011;5107;48.850;8.924;2022-07-22T01:00:18;7.50;;;6.57;;
10134;SDS011;5107;48.850;8.924;2022-07-22T01:02:51;7.20;;;6.50;;
10134;SDS011;5107;48.850;8.924;2022-07-22T01:05:19;6.93;;;6.30;;
10134;SDS011;5107;48.850;8.924;2022-07-22T01:07:46;7.33;;;6.40;;
10134;SDS011;5107;48.850;8.924;2022-07-22T01:10:14;8.17;;;6.17;;
10134;SDS011;5107;48.850;8.924;2022-07-22T01:12:41;8.13;;;6.27;;
10134;SDS011;5107;48.850;8.924;2022-07-22T01:15:09;7.03;;;6.33;;
10134;SDS011;5107;48.850;8.924;2022-07-22T01:17:37;6.73;;;6.00;;
10134;SDS011;5107;48.850;8.924;2022-07-22T01:20:06;6.70;;;6.00;;
10134;SDS011;5107;48.850;8.924;2022-07-22T01:22:35;7.17;;;6.47;;
10134;SDS011;5107;48.850;8.924;2022-07-22T01:25:02;7.57;;;6.47;;
10134;SDS011;5107;48.850;8.924;2022-07-22T01:27:31;8.40;;;6.87;;
10134;SDS011;5107;48.850;8.924;2022-07-22T01:29:58;7.10;;;6.40;;
10134;SDS011;5107;48.850;8.924;2022-07-22T01:32:25;7.23;;;6.53;;
10134;SDS011;5107;48.850;8.924;2022-07-22T01:34:53;8.33;;;6.47;;
10134;SDS011;5107;48.850;8.924;2022-07-22T01:37:21;8.73;;;6.63;;
10134;SDS011;5107;48.850;8.924;2022-07-22T01:39:48;7.80;;;7.07;;
10134;SDS011;5107;48.850;8.924;2022-07-22T01:42:16;8.30;;;6.90;;
10134;SDS011;5107;48.850;8.924;2022-07-22T01:44:43;8.80;;;7.00;;
10134;SDS011;5107;48.850;8.924;2022-07-22T01:47:11;7.90;;;7.10;;
10134;SDS011;5107;48.850;8.924;2022-07-22T01:49:38;8.13;;;7.00;;
10134;SDS011;5107;48.850;8.924;2022-07-22T01:52:05;7.23;;;6.53;;
10134;SDS011;5107;48.850;8.924;2022-07-22T01:54:35;8.07;;;7.27;;
10134;SDS011;5107;48.850;8.924;2022-07-22T01:57:03;8.13;;;7.23;;
10134;SDS011;5107;48.850;8.924;2022-07-22T01:59:30;8.70;;;6.90;;
10134;SDS011;5107;48.850;8.924;2022-07-22T02:01:59;10.53;;;8.40;;
10134;SDS011;5107;48.850;8.924;2022-07-22T02:04:26;10.50;;;8.27;;
10134;SDS011;5107;48.850;8.924;2022-07-22T02:06:53;8.83;;;7.80;;
10134;SDS011;5107;48.850;8.924;2022-07-22T02:09:21;8.87;;;7.17;;
10134;SDS011;5107;48.850;8.924;2022-07-22T02:11:53;8.03;;;6.63;;
10134;SDS011;5107;48.850;8.924;2022-07-22T02:14:20;7.90;;;6.73;;
10134;SDS011;5107;48.850;8.924;2022-07-22T02:16:49;6.93;;;6.23;;
10134;SDS011;5107;48.850;8.924;2022-07-22T02:19:16;7.73;;;6.93;;
10134;SDS011;5107;48.850;8.924;2022-07-22T02:21:44;7.87;;;7.07;;
10134;SDS011;5107;48.850;8.924;2022-07-22T02:24:11;10.07;;;7.90;;
10134;SDS011;5107;48.850;8.924;2022-07-22T02:26:38;8.23;;;7.40;;
10134;SDS011;5107;48.850;8.924;2022-07-22T02:29:07;7.23;;;6.50;;
10134;SDS011;5107;48.850;8.924;2022-07-22T02:31:35;7.90;;;7.10;;
10134;SDS011;5107;48.850;8.924;2022-07-22T02:34:06;8.43;;;7.50;;
10134;SDS011;5107;48.850;8.924;2022-07-22T02:36:33;9.00;;;6.73;;
10134;SDS011;5107;48.850;8.924;2022-07-22T02:39:00;8.10;;;6.90;;
10134;SDS011;5107;48.850;8.924;2022-07-22T02:41:30;7.77;;;6.90;;
10134;SDS011;5107;48.850;8.924;2022-07-22T02:43:57;7.80;;;6.63;;
10134;SDS011;5107;48.850;8.924;2022-07-22T02:46:26;7.40;;;6.50;;
10134;SDS011;5107;48.850;8.924;2022-07-22T02:48:56;7.53;;;6.67;;
10134;SDS011;5107;48.850;8.924;2022-07-22T02:51:24;7.60;;;6.90;;
10134;SDS011;5107;48.850;8.924;2022-07-22T02:53:51;7.43;;;6.73;;
10134;SDS011;5107;48.850;8.924;2022-07-22T02:56:20;8.50;;;7.23;;
10134;SDS011;5107;48.850;8.924;2022-07-22T02:58:47;8.53;;;7.47;;
10134;SDS011;5107;48.850;8.924;2022-07-22T03:01:17;8.20;;;7.40;;
10134;SDS011;5107;48.850;8.924;2022-07-22T03:03:52;8.73;;;7.60;;
10134;SDS011;5107;48.850;8.924;2022-07-22T03:06:20;14.17;;;7.83;;
10134;SDS011;5107;48.850;8.924;2022-07-22T03:09:13;9.27;;;7.97;;
10134;SDS011;5107;48.850;8.924;2022-07-22T03:11:43;8.53;;;7.73;;
10134;SDS011;5107;48.850;8.924;2022-07-22T03:14:11;13.83;;;8.40;;
10134;SDS011;5107;48.850;8.924;2022-07-22T03:16:38;8.43;;;7.47;;
10134;SDS011;5107;48.850;8.924;2022-07-22T03:19:07;9.50;;;8.50;;
10134;SDS011;5107;48.850;8.924;2022-07-22T03:21:34;9.40;;;7.47;;
10134;SDS011;5107;48.850;8.924;2022-07-22T03:24:02;7.83;;;7.07;;
10134;SDS011;5107;48.850;8.924;2022-07-22T03:26:32;8.60;;;7.70;;
10134;SDS011;5107;48.850;8.924;2022-07-22T03:28:59;11.37;;;9.07;;
10134;SDS011;5107;48.850;8.924;2022-07-22T03:31:27;9.43;;;8.43;;
10134;SDS011;5107;48.850;8.924;2022-07-22T03:33:55;9.77;;;8.17;;
10134;SDS011;5107;48.850;8.924;2022-07-22T03:36:23;8.93;;;8.03;;
10134;SDS011;5107;48.850;8.924;2022-07-22T03:38:51;9.73;;;8.70;;
10134;SDS011;5107;48.850;8.924;2022-07-22T03:41:18;11.33;;;9.33;;
10134;SDS011;5107;48.850;8.924;2022-07-22T03:43:46;9.60;;;8.60;;
10134;SDS011;5107;48.850;8.924;2022-07-22T03:46:13;11.60;;;8.67;;
10134;SDS011;5107;48.850;8.924;2022-07-22T03:48:40;9.57;;;8.57;;
10134;SDS011;5107;48.850;8.924;2022-07-22T03:51:07;10.40;;;8.73;;
10134;SDS011;5107;48.850;8.924;2022-07-22T03:53:38;10.43;;;8.93;;
10134;SDS011;5107;48.850;8.924;2022-07-22T03:56:06;11.13;;;8.73;;
10134;SDS011;5107;48.850;8.924;2022-07-22T03:58:34;9.40;;;8.40;;
10134;SDS011;5107;48.850;8.924;2022-07-22T04:01:01;9.80;;;8.57;;
10134;SDS011;5107;48.850;8.924;2022-07-22T04:03:28;10.17;;;8.93;;
10134;SDS011;5107;48.850;8.924;2022-07-22T04:06:25;9.23;;;8.33;;
10134;SDS011;5107;48.850;8.924;2022-07-22T04:09:00;10.07;;;8.97;;
10134;SDS011;5107;48.850;8.924;2022-07-22T04:11:27;9.57;;;8.30;;
10134;SDS011;5107;48.850;8.924;2022-07-22T04:13:55;9.63;;;8.63;;
10134;SDS011;5107;48.850;8.924;2022-07-22T04:16:22;11.17;;;9.17;;
10134;SDS011;5107;48.850;8.924;2022-07-22T04:18:57;10.27;;;8.83;;
10134;SDS011;5107;48.850;8.924;2022-07-22T04:21:39;10.77;;;8.20;;
10134;SDS011;5107;48.850;8.924;2022-07-22T04:24:10;10.20;;;9.17;;
10134;SDS011;5107;48.850;8.924;2022-07-22T04:26:37;10.20;;;8.63;;
10134;SDS011;5107;48.850;8.924;2022-07-22T04:29:05;9.13;;;8.23;;
10134;SDS011;5107;48.850;8.924;2022-07-22T04:31:33;9.53;;;8.53;;
10134;SDS011;5107;48.850;8.924;2022-07-22T04:34:18;10.53;;;8.70;;
10134;SDS011;5107;48.850;8.924;2022-07-22T04:36:47;8.65;;;7.78;;
10134;SDS011;5107;48.850;8.924;2022-07-22T04:39:17;8.90;;;8.10;;
10134;SDS011;5107;48.850;8.924;2022-07-22T04:41:50;10.18;;;8.05;;
10134;SDS011;5107;48.850;8.924;2022-07-22T04:44:18;9.05;;;7.90;;
10134;SDS011;5107;48.850;8.924;2022-07-22T04:46:46;10.90;;;8.77;;
10134;SDS011;5107;48.850;8.924;2022-07-22T04:49:13;10.27;;;9.15;;
10134;SDS011;5107;48.850;8.924;2022-07-22T04:51:40;10.00;;;9.00;;
10134;SDS011;5107;48.850;8.924;2022-07-22T04:54:12;10.45;;;9.43;;
10134;SDS011;5107;48.850;8.924;2022-07-22T04:56:43;9.52;;;8.63;;
10134;SDS011;5107;48.850;8.924;2022-07-22T04:59:11;9.55;;;8.55;;
10134;SDS011;5107;48.850;8.924;2022-07-22T05:01:39;9.23;;;7.93;;
10134;SDS011;5107;48.850;8.924;2022-07-22T05:04:06;8.10;;;7.32;;
10134;SDS011;5107;48.850;8.924;2022-07-22T05:06:36;8.95;;;7.95;;
10134;SDS011;5107;48.850;8.924;2022-07-22T05:09:04;8.80;;;7.90;;
10134;SDS011;5107;48.850;8.924;2022-07-22T05:11:31;8.80;;;7.90;;
10134;SDS011;5107;48.850;8.924;2022-07-22T05:14:00;10.75;;;7.70;;
10134;SDS011;5107;48.850;8.924;2022-07-22T05:16:28;8.35;;;7.55;;
10134;SDS011;5107;48.850;8.924;2022-07-22T05:18:55;9.30;;;8.38;;
10134;SDS011;5107;48.850;8.924;2022-07-22T05:21:22;7.90;;;6.97;;
10134;SDS011;5107;48.850;8.924;2022-07-22T05:23:49;7.93;;;7.22;;
10134;SDS011;5107;48.850;8.924;2022-07-22T05:26:16;8.82;;;7.93;;
10134;SDS011;5107;48.850;8.924;2022-07-22T05:28:45;8.80;;;7.90;;
10134;SDS011;5107;48.850;8.924;2022-07-22T05:31:14;9.23;;;8.23;;
10134;SDS011;5107;48.850;8.924;2022-07-22T05:33:41;10.18;;;8.38;;
10134;SDS011;5107;48.850;8.924;2022-07-22T05:36:28;8.90;;;7.55;;
10134;SDS011;5107;48.850;8.924;2022-07-22T05:38:56;8.52;;;7.72;;
10134;SDS011;5107;48.850;8.924;2022-07-22T05:41:23;9.50;;;7.68;;
10134;SDS011;5107;48.850;8.924;2022-07-22T05:43:51;9.82;;;7.70;;
10134;SDS011;5107;48.850;8.924;2022-07-22T05:46:19;8.80;;;7.93;;
10134;SDS011;5107;48.850;8.924;2022-07-22T05:48:47;8.55;;;7.75;;
10134;SDS011;5107;48.850;8.924;2022-07-22T05:51:15;8.88;;;7.97;;
10134;SDS011;5107;48.850;8.924;2022-07-22T05:53:42;8.93;;;8.00;;
10134;SDS011;5107;48.850;8.924;2022-07-22T05:56:10;9.88;;;8.35;;
10134;SDS011;5107;48.850;8.924;2022-07-22T05:58:38;9.75;;;8.32;;
10134;SDS011;5107;48.850;8.924;2022-07-22T06:01:07;9.73;;;8.38;;
10134;SDS011;5107;48.850;8.924;2022-07-22T06:03:37;9.60;;;8.65;;
10134;SDS011;5107;48.850;8.924;2022-07-22T06:06:04;9.82;;;8.45;;
10134;SDS011;5107;48.850;8.924;2022-07-22T06:08:34;9.98;;;8.77;;
10134;SDS011;5107;48.850;8.924;2022-07-22T06:11:02;10.80;;;8.73;;
10134;SDS011;5107;48.850;8.924;2022-07-22T06:13:30;10.18;;;9.00;;
10134;SDS011;5107;48.850;8.924;2022-07-22T06:15:58;11.55;;;8.70;;
10134;SDS011;5107;48.850;8.924;2022-07-22T06:18:26;9.82;;;8.85;;
10134;SDS011;5107;48.850;8.924;2022-07-22T06:20:55;9.95;;;8.50;;
10134;SDS011;5107;48.850;8.924;2022-07-22T06:23:22;9.30;;;8.40;;
10134;SDS011;5107;48.850;8.924;2022-07-22T06:25:50;8.95;;;8.05;;
10134;SDS011;5107;48.850;8.924;2022-07-22T06:28:24;9.80;;;8.80;;
10134;SDS011;5107;48.850;8.924;2022-07-22T06:30:51;8.93;;;8.02;;
10134;SDS011;5107;48.850;8.924;2022-07-22T06:33:20;9.45;;;8.45;;
10134;SDS011;5107;48.850;8.924;2022-07-22T06:35:47;11.45;;;8.40;;
10134;SDS011;5107;48.850;8.924;2022-07-22T06:38:16;8.10;;;7.30;;
10134;SDS011;5107;48.850;8.924;2022-07-22T06:41:02;8.77;;;7.82;;
10134;SDS011;5107;48.850;8.924;2022-07-22T06:43:48;9.18;;;7.90;;
10134;SDS011;5107;48.850;8.924;2022-07-22T06:46:43;10.40;;;8.40;;
10134;SDS011;5107;48.850;8.924;2022-07-22T06:49:11;9.48;;;8.57;;
10134;SDS011;5107;48.850;8.924;2022-07-22T06:51:39;8.35;;;7.47;;
10134;SDS011;5107;48.850;8.924;2022-07-22T06:54:08;8.65;;;7.68;;
10134;SDS011;5107;48.850;8.924;2022-07-22T06:56:35;9.27;;;8.32;;
10134;SDS011;5107;48.850;8.924;2022-07-22T06:59:04;8.43;;;7.63;;
10134;SDS011;5107;48.850;8.924;2022-07-22T07:01:31;9.48;;;8.57;;
10134;SDS011;5107;48.850;8.924;2022-07-22T07:04:02;9.32;;;8.43;;
10134;SDS011;5107;48.850;8.924;2022-07-22T07:06:29;9.38;;;8.18;;
10134;SDS011;5107;48.850;8.924;2022-07-22T07:09:00;9.25;;;8.07;;
10134;SDS011;5107;48.850;8.924;2022-07-22T07:11:29;8.70;;;7.85;;
10134;SDS011;5107;48.850;8.924;2022-07-22T07:13:56;10.05;;;8.23;;
10134;SDS011;5107;48.850;8.924;2022-07-22T07:16:24;10.18;;;7.90;;
10134;SDS011;5107;48.850;8.924;2022-07-22T07:18:51;8.13;;;7.32;;
10134;SDS011;5107;48.850;8.924;2022-07-22T07:21:18;8.55;;;7.55;;
10134;SDS011;5107;48.850;8.924;2022-07-22T07:23:46;8.68;;;7.88;;
10134;SDS011;5107;48.850;8.924;2022-07-22T07:26:13;9.60;;;8.15;;
10134;SDS011;5107;48.850;8.924;2022-07-22T07:28:42;8.40;;;7.60;;
10134;SDS011;5107;48.850;8.924;2022-07-22T07:31:31;9.20;;;8.00;;
10134;SDS011;5107;48.850;8.924;2022-07-22T07:34:02;8.63;;;7.72;;
10134;SDS011;5107;48.850;8.924;2022-07-22T07:36:29;9.38;;;7.93;;
10134;SDS011;5107;48.850;8.924;2022-07-22T07:38:56;8.65;;;7.85;;
10134;SDS011;5107;48.850;8.924;2022-07-22T07:41:24;8.65;;;7.85;;
10134;SDS011;5107;48.850;8.924;2022-07-22T07:43:52;8.68;;;7.78;;
10134;SDS011;5107;48.850;8.924;2022-07-22T07:46:19;10.82;;;8.50;;
10134;SDS011;5107;48.850;8.924;2022-07-22T07:48:47;12.52;;;8.95;;
10134;SDS011;5107;48.850;8.924;2022-07-22T07:51:14;9.05;;;8.15;;
10134;SDS011;5107;48.850;8.924;2022-07-22T07:53:42;10.55;;;9.45;;
10134;SDS011;5107;48.850;8.924;2022-07-22T07:56:09;10.30;;;9.18;;
10134;SDS011;5107;48.850;8.924;2022-07-22T07:58:36;10.07;;;8.60;;
10134;SDS011;5107;48.850;8.924;2022-07-22T08:01:06;9.50;;;8.60;;
10134;SDS011;5107;48.850;8.924;2022-07-22T08:03:34;10.40;;;9.02;;
10134;SDS011;5107;48.850;8.924;2022-07-22T08:06:01;10.27;;;9.18;;
10134;SDS011;5107;48.850;8.924;2022-07-22T08:08:29;8.95;;;8.05;;
10134;SDS011;5107;48.850;8.924;2022-07-22T08:11:03;11.50;;;8.48;;
10134;SDS011;5107;48.850;8.924;2022-07-22T08:13:49;10.00;;;9.00;;
10134;SDS011;5107;48.850;8.924;2022-07-22T08:16:20;8.85;;;8.05;;
10134;SDS011;5107;48.850;8.924;2022-07-22T08:18:47;9.07;;;8.02;;
10134;SDS011;5107;48.850;8.924;2022-07-22T08:21:15;10.07;;;8.98;;
10134;SDS011;5107;48.850;8.924;2022-07-22T08:23:49;9.50;;;8.50;;
10134;SDS011;5107;48.850;8.924;2022-07-22T08:26:16;9.60;;;8.60;;
10134;SDS011;5107;48.850;8.924;2022-07-22T08:28:43;10.75;;;9.75;;
10134;SDS011;5107;48.850;8.924;2022-07-22T08:31:11;9.15;;;8.25;;
10134;SDS011;5107;48.850;8.924;2022-07-22T08:33:40;9.30;;;8.20;;
10134;SDS011;5107;48.850;8.924;2022-07-22T08:36:07;8.95;;;8.05;;
10134;SDS011;5107;48.850;8.924;2022-07-22T08:38:35;9.68;;;7.78;;
10134;SDS011;5107;48.850;8.924;2022-07-22T08:41:03;8.88;;;7.97;;
10134;SDS011;5107;48.850;8.924;2022-07-22T08:43:34;10.13;;;8.57;;
10134;SDS011;5107;48.850;8.924;2022-07-22T08:46:06;9.18;;;8.27;;
10134;SDS011;5107;48.850;8.924;2022-07-22T08:48:55;9.15;;;8.27;;
10134;SDS011;5107;48.850;8.924;2022-07-22T08:51:46;9.73;;;8.82;;
10134;SDS011;5107;48.850;8.924;2022-07-22T08:54:19;8.98;;;8.18;;
10134;SDS011;5107;48.850;8.924;2022-07-22T08:56:47;10.63;;;9.52;;
10134;SDS011;5107;48.850;8.924;2022-07-22T08:59:15;8.70;;;7.82;;
10134;SDS011;5107;48.850;8.924;2022-07-22T09:04:31;9.27;;;8.38;;
10134;SDS011;5107;48.850;8.924;2022-07-22T09:06:58;13.60;;;8.73;;
10134;SDS011;5107;48.850;8.924;2022-07-22T09:09:29;9.07;;;8.18;;
10134;SDS011;5107;48.850;8.924;2022-07-22T09:12:33;9.70;;;8.77;;
10134;SDS011;5107;48.850;8.924;2022-07-22T09:15:10;9.13;;;8.32;;
10134;SDS011;5107;48.850;8.924;2022-07-22T09:17:52;9.70;;;8.25;;
10134;SDS011;5107;48.850;8.924;2022-07-22T09:20:32;8.95;;;8.05;;
10134;SDS011;5107;48.850;8.924;2022-07-22T09:23:19;8.93;;;8.13;;
10134;SDS011;5107;48.850;8.924;2022-07-22T09:25:50;10.25;;;8.77;;
10134;SDS011;5107;48.850;8.924;2022-07-22T09:28:40;9.27;;;8.18;;
10134;SDS011;5107;48.850;8.924;2022-07-22T09:31:27;9.80;;;7.90;;
10134;SDS011;5107;48.850;8.924;2022-07-22T09:34:25;8.75;;;7.95;;
10134;SDS011;5107;48.850;8.924;2022-07-22T09:36:59;8.57;;;7.45;;
10134;SDS011;5107;48.850;8.924;2022-07-22T09:39:29;9.18;;;8.38;;
10134;SDS011;5107;48.850;8.924;2022-07-22T09:41:59;8.77;;;7.85;;
10134;SDS011;5107;48.850;8.924;2022-07-22T09:44:29;8.65;;;7.75;;
10134;SDS011;5107;48.850;8.924;2022-07-22T09:47:02;9.50;;;8.55;;
10134;SDS011;5107;48.850;8.924;2022-07-22T09:50:10;9.00;;;8.20;;
10134;SDS011;5107;48.850;8.924;2022-07-22T09:53:06;8.75;;;7.70;;
10134;SDS011;5107;48.850;8.924;2022-07-22T09:55:39;8.48;;;7.57;;
10134;SDS011;5107;48.850;8.924;2022-07-22T09:58:06;8.98;;;8.18;;
10134;SDS011;5107;48.850;8.924;2022-07-22T10:00:36;8.70;;;7.45;;
10134;SDS011;5107;48.850;8.924;2022-07-22T10:03:05;7.80;;;7.00;;
10134;SDS011;5107;48.850;8.924;2022-07-22T10:05:38;9.23;;;7.90;;
10134;SDS011;5107;48.850;8.924;2022-07-22T10:08:10;8.60;;;7.72;;
10134;SDS011;5107;48.850;8.924;2022-07-22T10:10:37;8.80;;;7.82;;
10134;SDS011;5107;48.850;8.924;2022-07-22T10:13:07;10.95;;;8.13;;
10134;SDS011;5107;48.850;8.924;2022-07-22T10:15:35;9.02;;;8.23;;
10134;SDS011;5107;48.850;8.924;2022-07-22T10:18:05;8.98;;;8.07;;
10134;SDS011;5107;48.850;8.924;2022-07-22T10:20:36;8.68;;;7.88;;
10134;SDS011;5107;48.850;8.924;2022-07-22T10:23:04;8.57;;;7.78;;
10134;SDS011;5107;48.850;8.924;2022-07-22T10:25:47;9.77;;;8.77;;
10134;SDS011;5107;48.850;8.924;2022-07-22T10:28:24;9.30;;;8.20;;
10134;SDS011;5107;48.850;8.924;2022-07-22T10:30:53;9.13;;;8.23;;
10134;SDS011;5107;48.850;8.924;2022-07-22T10:33:45;9.40;;;8.48;;
10134;SDS011;5107;48.850;8.924;2022-07-22T10:36:29;8.75;;;8.05;;
10134;SDS011;5107;48.850;8.924;2022-07-22T10:39:03;9.40;;;7.75;;
10134;SDS011;5107;48.850;8.924;2022-07-22T10:41:35;8.70;;;7.88;;
10134;SDS011;5107;48.850;8.924;2022-07-22T10:44:04;8.95;;;8.10;;
10134;SDS011;5107;48.850;8.924;2022-07-22T10:49:27;9.05;;;8.25;;
10134;SDS011;5107;48.850;8.924;2022-07-22T10:52:10;8.57;;;7.72;;
10134;SDS011;5107;48.850;8.924;2022-07-22T10:57:46;7.88;;;7.07;;
10134;SDS011;5107;48.850;8.924;2022-07-22T11:00:14;8.55;;;7.65;;
10134;SDS011;5107;48.850;8.924;2022-07-22T11:02:42;10.25;;;7.60;;
10134;SDS011;5107;48.850;8.924;2022-07-22T11:05:09;9.25;;;8.32;;
10134;SDS011;5107;48.850;8.924;2022-07-22T11:07:42;9.23;;;8.00;;
10134;SDS011;5107;48.850;8.924;2022-07-22T11:10:12;9.02;;;7.80;;
10134;SDS011;5107;48.850;8.924;2022-07-22T11:12:41;8.40;;;7.57;;
10134;SDS011;5107;48.850;8.924;2022-07-22T11:15:10;9.23;;;8.43;;
10134;SDS011;5107;48.850;8.924;2022-07-22T11:17:38;10.60;;;8.85;;
10134;SDS011;5107;48.850;8.924;2022-07-22T11:20:06;8.30;;;7.50;;
10134;SDS011;5107;48.850;8.924;2022-07-22T11:22:36;8.38;;;7.40;;
10134;SDS011;5107;48.850;8.924;2022-07-22T11:25:04;8.32;;;7.43;;
10134;SDS011;5107;48.850;8.924;2022-07-22T11:27:34;8.27;;;7.53;;
10134;SDS011;5107;48.850;8.924;2022-07-22T11:30:03;7.95;;;7.20;;
10134;SDS011;5107;48.850;8.924;2022-07-22T11:32:40;8.18;;;7.38;;
10134;SDS011;5107;48.850;8.924;2022-07-22T11:35:10;7.95;;;7.25;;
10134;SDS011;5107;48.850;8.924;2022-07-22T11:37:38;8.73;;;7.68;;
10134;SDS011;5107;48.850;8.924;2022-07-22T11:40:07;8.68;;;7.78;;
10134;SDS011;5107;48.850;8.924;2022-07-22T11:42:36;8.25;;;7.38;;
10134;SDS011;5107;48.850;8.924;2022-07-22T11:45:06;7.88;;;7.10;;
10134;SDS011;5107;48.850;8.924;2022-07-22T11:47:35;8.40;;;7.18;;
10134;SDS011;5107;48.850;8.924;2022-07-22T11:50:02;8.23;;;7.53;;
10134;SDS011;5107;48.850;8.924;2022-07-22T11:52:30;8.48;;;7.65;;
10134;SDS011;5107;48.850;8.924;2022-07-22T11:54:58;8.80;;;8.00;;
10134;SDS011;5107;48.850;8.924;2022-07-22T11:57:25;8.27;;;7.55;;
10134;SDS011;5107;48.850;8.924;2022-07-22T11:59:52;7.65;;;6.97;;
10134;SDS011;5107;48.850;8.924;2022-07-22T12:02:19;8.13;;;7.07;;
10134;SDS011;5107;48.850;8.924;2022-07-22T12:04:49;8.55;;;7.75;;
10134;SDS011;5107;48.850;8.924;2022-07-22T12:07:16;8.10;;;7.32;;
10134;SDS011;5107;48.850;8.924;2022-07-22T12:09:44;8.23;;;7.53;;
10134;SDS011;5107;48.850;8.924;2022-07-22T12:12:11;8.68;;;7.47;;
10134;SDS011;5107;48.850;8.924;2022-07-22T12:14:44;7.90;;;7.07;;
10134;SDS011;5107;48.850;8.924;2022-07-22T12:17:12;7.80;;;7.10;;
10134;SDS011;5107;48.850;8.924;2022-07-22T12:19:41;7.88;;;7.10;;
10134;SDS011;5107;48.850;8.924;2022-07-22T12:22:10;7.93;;;7.13;;
10134;SDS011;5107;48.850;8.924;2022-07-22T12:24:45;6.88;;;6.28;;
10134;SDS011;5107;48.850;8.924;2022-07-22T12:27:23;8.02;;;7.22;;
10134;SDS011;5107;48.850;8.924;2022-07-22T12:29:50;7.43;;;6.72;;
10134;SDS011;5107;48.850;8.924;2022-07-22T12:32:18;8.50;;;7.70;;
10134;SDS011;5107;48.850;8.924;2022-07-22T12:34:55;8.05;;;7.05;;
10134;SDS011;5107;48.850;8.924;2022-07-22T12:37:27;7.78;;;7.00;;
10134;SDS011;5107;48.850;8.924;2022-07-22T12:39:57;7.43;;;6.75;;
10134;SDS011;5107;48.850;8.924;2022-07-22T12:42:28;7.57;;;6.88;;
10134;SDS011;5107;48.850;8.924;2022-07-22T12:45:02;7.50;;;6.88;;
10134;SDS011;5107;48.850;8.924;2022-07-22T12:47:42;8.13;;;7.32;;
10134;SDS011;5107;48.850;8.924;2022-07-22T12:50:16;7.97;;;7.18;;
10134;SDS011;5107;48.850;8.924;2022-07-22T12:52:50;7.72;;;7.03;;
10134;SDS011;5107;48.850;8.924;2022-07-22T12:55:19;7.22;;;6.63;;
10134;SDS011;5107;48.850;8.924;2022-07-22T12:57:46;7.80;;;7.10;;
10134;SDS011;5107;48.850;8.924;2022-07-22T13:00:17;7.25;;;6.65;;
10134;SDS011;5107;48.850;8.924;2022-07-22T13:02:47;7.65;;;6.88;;
10134;SDS011;5107;48.850;8.924;2022-07-22T13:05:14;8.20;;;7.40;;
10134;SDS011;5107;48.850;8.924;2022-07-22T13:07:42;7.55;;;6.90;;
10134;SDS011;5107;48.850;8.924;2022-07-22T13:10:12;7.95;;;7.18;;
10134;SDS011;5107;48.850;8.924;2022-07-22T13:12:41;7.90;;;7.20;;
10134;SDS011;5107;48.850;8.924;2022-07-22T13:15:09;7.00;;;6.40;;
10134;SDS011;5107;48.850;8.924;2022-07-22T13:17:38;6.60;;;6.00;;
10134;SDS011;5107;48.850;8.924;2022-07-22T13:20:07;7.50;;;6.70;;
10134;SDS011;5107;48.850;8.924;2022-07-22T13:22:35;7.13;;;6.10;;
10134;SDS011;5107;48.850;8.924;2022-07-22T13:25:03;7.10;;;6.40;;
10134;SDS011;5107;48.850;8.924;2022-07-22T13:27:33;6.40;;;5.80;;
10134;SDS011;5107;48.850;8.924;2022-07-22T13:30:00;6.63;;;6.03;;
10134;SDS011;5107;48.850;8.924;2022-07-22T13:32:27;6.70;;;6.00;;
10134;SDS011;5107;48.850;8.924;2022-07-22T13:34:54;6.85;;;6.35;;
10134;SDS011;5107;48.850;8.924;2022-07-22T13:37:22;7.63;;;6.43;;
10134;SDS011;5107;48.850;8.924;2022-07-22T13:39:51;6.43;;;5.82;;
10134;SDS011;5107;48.850;8.924;2022-07-22T13:42:18;7.47;;;6.85;;
10134;SDS011;5107;48.850;8.924;2022-07-22T13:44:47;7.20;;;6.50;;
10134;SDS011;5107;48.850;8.924;2022-07-22T13:47:16;6.35;;;5.75;;
10134;SDS011;5107;48.850;8.924;2022-07-22T13:49:46;7.53;;;6.80;;
10134;SDS011;5107;48.850;8.924;2022-07-22T13:52:14;7.88;;;7.07;;
10134;SDS011;5107;48.850;8.924;2022-07-22T13:54:41;7.20;;;6.50;;
10134;SDS011;5107;48.850;8.924;2022-07-22T13:57:09;6.80;;;6.20;;
10134;SDS011;5107;48.850;8.924;2022-07-22T13:59:37;6.95;;;6.35;;
10134;SDS011;5107;48.850;8.924;2022-07-22T14:02:06;7.18;;;6.47;;
10134;SDS011;5107;48.850;8.924;2022-07-22T14:04:34;6.70;;;6.15;;
10134;SDS011;5107;48.850;8.924;2022-07-22T14:07:01;6.72;;;6.13;;
10134;SDS011;5107;48.850;8.924;2022-07-22T14:09:28;6.82;;;6.22;;
10134;SDS011;5107;48.850;8.924;2022-07-22T14:11:55;6.90;;;6.20;;
10134;SDS011;5107;48.850;8.924;2022-07-22T14:14:23;7.20;;;6.10;;
10134;SDS011;5107;48.850;8.924;2022-07-22T14:16:51;8.50;;;7.03;;
10134;SDS011;5107;48.850;8.924;2022-07-22T14:19:19;6.35;;;5.85;;
10134;SDS011;5107;48.850;8.924;2022-07-22T14:21:46;6.57;;;5.97;;
10134;SDS011;5107;48.850;8.924;2022-07-22T14:24:14;7.05;;;6.30;;
10134;SDS011;5107;48.850;8.924;2022-07-22T14:26:41;6.50;;;6.00;;
10134;SDS011;5107;48.850;8.924;2022-07-22T14:29:09;7.53;;;6.15;;
10134;SDS011;5107;48.850;8.924;2022-07-22T14:31:36;6.88;;;6.28;;
10134;SDS011;5107;48.850;8.924;2022-07-22T14:34:03;6.80;;;6.30;;
10134;SDS011;5107;48.850;8.924;2022-07-22T14:36:32;6.20;;;5.78;;
10134;SDS011;5107;48.850;8.924;2022-07-22T14:38:59;6.65;;;6.05;;
10134;SDS011;5107;48.850;8.924;2022-07-22T14:41:26;7.28;;;6.65;;
10134;SDS011;5107;48.850;8.924;2022-07-22T14:43:54;7.53;;;6.75;;
10134;SDS011;5107;48.850;8.924;2022-07-22T14:46:21;7.05;;;6.45;;
10134;SDS011;5107;48.850;8.924;2022-07-22T14:48:48;6.63;;;6.13;;
10134;SDS011;5107;48.850;8.924;2022-07-22T14:51:18;7.00;;;6.40;;
10134;SDS011;5107;48.850;8.924;2022-07-22T14:53:48;6.85;;;6.15;;
10134;SDS011;5107;48.850;8.924;2022-07-22T14:56:16;7.20;;;6.60;;
10134;SDS011;5107;48.850;8.924;2022-07-22T14:58:44;6.53;;;5.93;;
10134;SDS011;5107;48.850;8.924;2022-07-22T15:01:11;7.05;;;6.45;;
10134;SDS011;5107;48.850;8.924;2022-07-22T15:03:38;7.22;;;6.63;;
10134;SDS011;5107;48.850;8.924;2022-07-22T15:06:06;7.10;;;6.40;;
10134;SDS011;5107;48.850;8.924;2022-07-22T15:08:33;7.32;;;6.63;;
10134;SDS011;5107;48.850;8.924;2022-07-22T15:11:02;6.72;;;6.13;;
10134;SDS011;5107;48.850;8.924;2022-07-22T15:13:30;7.90;;;6.20;;
10134;SDS011;5107;48.850;8.924;2022-07-22T15:15:57;6.80;;;6.20;;
10134;SDS011;5107;48.850;8.924;2022-07-22T15:18:25;6.53;;;5.93;;
10134;SDS011;5107;48.850;8.924;2022-07-22T15:20:52;7.13;;;6.40;;
10134;SDS011;5107;48.850;8.924;2022-07-22T15:23:21;6.47;;;5.97;;
10134;SDS011;5107;48.850;8.924;2022-07-22T15:25:50;8.18;;;5.95;;